createdAt,value
2022-10-17T05:56:37.469Z,9.73
2022-10-17T05:59:06.504Z,9.17
2022-10-17T06:01:35.427Z,9.43
2022-10-17T06:04:03.260Z,9.41
2022-10-17T06:06:31.591Z,9.58
2022-10-17T06:08:59.424Z,9.63
2022-10-17T06:11:29.125Z,9.72
2022-10-17T06:13:56.808Z,9.85
2022-10-17T06:16:24.691Z,10.00
2022-10-17T06:18:52.464Z,10.16
2022-10-17T06:21:23.718Z,10.17
2022-10-17T06:23:52.257Z,10.27
2022-10-17T06:26:20.475Z,10.31
2022-10-17T06:28:48.992Z,10.46
2022-10-17T06:31:17.825Z,10.49
2022-10-17T06:33:49.309Z,10.74
2022-10-17T06:36:16.973Z,10.85
2022-10-17T06:38:44.961Z,10.93
2022-10-17T06:41:15.753Z,11.05
2022-10-17T06:43:46.374Z,11.22
2022-10-17T06:46:26.742Z,11.27
2022-10-17T06:48:54.261Z,11.34
2022-10-17T06:51:22.663Z,11.49
2022-10-17T06:53:50.314Z,11.57
2022-10-17T06:56:23.943Z,11.80
2022-10-17T06:58:52.916Z,11.90
2022-10-17T07:01:22.453Z,12.05
2022-10-17T07:03:50.867Z,12.20
2022-10-17T07:06:19.109Z,12.34
2022-10-17T07:08:46.991Z,12.45
2022-10-17T07:11:18.027Z,12.52
2022-10-17T07:13:45.570Z,12.71
2022-10-17T07:16:14.210Z,12.85
2022-10-17T07:18:42.779Z,12.97
2022-10-17T07:21:10.385Z,13.10
2022-10-17T07:23:39.816Z,13.24
2022-10-17T07:26:10.696Z,13.31
2022-10-17T07:28:41.289Z,13.43
2022-10-17T07:31:16.714Z,13.61
2022-10-17T07:36:18.236Z,13.85
2022-10-17T07:38:45.822Z,13.93
2022-10-17T07:41:17.753Z,14.02
2022-10-17T07:43:49.216Z,14.12
2022-10-17T07:46:17.369Z,14.24
2022-10-17T07:48:45.264Z,14.34
2022-10-17T07:51:13.101Z,14.49
2022-10-17T07:53:42.751Z,14.59
2022-10-17T07:56:12.979Z,14.69
2022-10-17T07:58:40.404Z,14.78
2022-10-17T08:01:14.749Z,14.89
2022-10-17T08:03:44.895Z,14.93
2022-10-17T08:06:12.828Z,15.05
2022-10-17T08:08:40.840Z,15.16
2022-10-17T08:11:11.169Z,15.20
2022-10-17T08:13:40.168Z,15.30
2022-10-17T08:16:11.050Z,15.40
2022-10-17T08:18:40.273Z,15.49
2022-10-17T08:21:09.222Z,15.59
2022-10-17T08:23:37.111Z,15.71
2022-10-17T08:26:10.287Z,15.78
2022-10-17T08:28:39.996Z,15.91
2022-10-17T08:31:13.990Z,16.02
2022-10-17T08:33:42.523Z,16.11
2022-10-17T08:36:14.739Z,16.23
2022-10-17T08:38:43.660Z,16.39
2022-10-17T08:41:39.613Z,16.54
2022-10-17T08:44:44.917Z,16.50
2022-10-17T08:47:29.543Z,16.64
2022-10-17T08:50:02.276Z,16.80
2022-10-17T08:52:40.148Z,16.94
2022-10-17T08:55:17.168Z,17.11
2022-10-17T08:57:44.787Z,17.20
2022-10-17T09:00:19.820Z,17.24
2022-10-17T09:03:15.245Z,17.31
2022-10-17T09:05:52.234Z,17.40
2022-10-17T09:08:49.935Z,17.53
2022-10-17T09:11:34.036Z,17.62
2022-10-17T09:14:16.828Z,17.78
2022-10-17T09:17:42.804Z,17.85
2022-10-17T09:20:16.249Z,18.01
2022-10-17T09:25:28.347Z,18.13
2022-10-17T09:28:14.184Z,18.31
2022-10-17T09:30:47.735Z,18.39
2022-10-17T09:33:35.467Z,18.52
2022-10-17T09:36:22.788Z,18.64
2022-10-17T09:38:58.330Z,18.72
2022-10-17T09:41:51.539Z,18.70
2022-10-17T09:44:23.742Z,18.79
2022-10-17T09:47:05.193Z,18.94
2022-10-17T09:49:36.301Z,19.04
2022-10-17T09:52:06.354Z,19.10
2022-10-17T09:54:46.839Z,19.12
2022-10-17T09:57:16.179Z,19.27
2022-10-17T09:59:46.842Z,19.33
2022-10-17T10:02:20.845Z,19.35
2022-10-17T10:05:03.609Z,19.33
2022-10-17T10:07:35.739Z,19.43
2022-10-17T10:10:06.720Z,19.35
2022-10-17T10:12:39.442Z,19.58
2022-10-17T10:15:37.844Z,19.58
2022-10-17T10:18:25.215Z,19.66
2022-10-17T10:21:03.516Z,19.74
2022-10-17T10:23:30.972Z,19.77
2022-10-17T10:26:02.844Z,19.72
2022-10-17T10:28:39.986Z,19.82
2022-10-17T10:31:09.793Z,19.91
2022-10-17T10:33:42.991Z,19.90
2022-10-17T10:36:12.088Z,19.91
2022-10-17T10:38:42.504Z,19.99
2022-10-17T10:41:11.516Z,19.93
2022-10-17T10:43:45.920Z,20.06
2022-10-17T10:46:20.129Z,20.09
2022-10-17T10:48:58.549Z,20.13
2022-10-17T10:51:38.315Z,20.24
2022-10-17T10:54:29.999Z,20.29
2022-10-17T10:57:00.669Z,20.38
2022-10-17T10:59:39.583Z,20.45
2022-10-17T11:02:33.440Z,20.50
2022-10-17T11:05:18.627Z,20.61
2022-10-17T11:07:49.545Z,20.51
2022-10-17T11:10:55.988Z,20.39
2022-10-17T11:13:29.029Z,20.45
2022-10-17T11:16:06.599Z,20.52
2022-10-17T11:18:42.115Z,20.55
2022-10-17T11:21:17.315Z,20.56
2022-10-17T11:23:48.929Z,20.62
2022-10-17T11:26:26.938Z,20.47
2022-10-17T11:29:01.444Z,20.62
2022-10-17T11:31:35.728Z,20.67
2022-10-17T11:34:14.933Z,20.65
2022-10-17T11:36:44.330Z,20.57
2022-10-17T11:39:29.119Z,20.70
2022-10-17T11:42:06.619Z,20.80
2022-10-17T11:44:38.960Z,20.86
2022-10-17T11:47:43.955Z,20.93
2022-10-17T11:53:11.950Z,21.05
2022-10-17T11:55:41.921Z,21.09
2022-10-17T11:58:17.346Z,21.11
2022-10-17T12:01:12.932Z,21.16
2022-10-17T12:03:51.625Z,21.15
2022-10-17T12:06:40.924Z,21.15
2022-10-17T12:09:20.869Z,21.06
2022-10-17T12:11:59.057Z,21.13
2022-10-17T12:14:42.057Z,21.13
2022-10-17T12:17:34.772Z,21.19
2022-10-17T12:20:21.693Z,21.22
2022-10-17T12:22:55.109Z,21.15
2022-10-17T12:25:31.688Z,21.34
2022-10-17T12:28:07.283Z,21.39
2022-10-17T12:30:35.105Z,21.25
2022-10-17T12:33:12.037Z,21.19
2022-10-17T12:35:39.895Z,21.30
2022-10-17T12:38:27.681Z,21.33
2022-10-17T12:40:57.635Z,21.16
2022-10-17T12:43:28.102Z,21.04
2022-10-17T12:45:57.964Z,21.07
2022-10-17T12:48:34.452Z,21.11
2022-10-17T12:54:02.104Z,21.19
2022-10-17T12:56:41.193Z,21.20
2022-10-17T12:59:13.320Z,21.08
2022-10-17T13:01:46.338Z,20.99
2022-10-17T13:04:15.136Z,20.91
2022-10-17T13:06:48.829Z,20.75
2022-10-17T13:09:33.459Z,20.63
2022-10-17T13:12:04.561Z,20.53
2022-10-17T13:14:34.051Z,20.45
2022-10-17T13:17:05.976Z,20.38
2022-10-17T13:19:45.776Z,20.27
2022-10-17T13:22:17.940Z,20.19
2022-10-17T13:24:46.660Z,20.15
2022-10-17T13:27:29.463Z,20.13
2022-10-17T13:30:00.744Z,20.03
2022-10-17T13:32:37.553Z,20.10
2022-10-17T13:35:11.979Z,20.09
2022-10-17T13:37:44.536Z,20.12
2022-10-17T13:40:40.758Z,20.08
2022-10-17T13:43:19.497Z,20.05
2022-10-17T13:45:51.488Z,19.98
2022-10-17T13:48:30.673Z,19.95
2022-10-17T13:51:03.034Z,19.89
2022-10-17T13:53:39.692Z,19.88
2022-10-17T13:56:32.940Z,19.84
2022-10-17T13:59:27.613Z,19.81
2022-10-17T14:01:57.076Z,19.75
2022-10-17T14:04:25.282Z,19.70
2022-10-17T14:06:52.845Z,19.66
2022-10-17T14:09:29.904Z,19.65
2022-10-17T14:12:19.394Z,19.63
2022-10-17T14:15:13.098Z,19.60
2022-10-17T14:17:39.434Z,19.58
2022-10-17T14:20:48.174Z,19.52
2022-10-17T14:23:21.316Z,19.47
2022-10-17T14:25:46.780Z,19.44
2022-10-17T14:28:16.866Z,19.40
2022-10-17T14:31:02.438Z,19.41
2022-10-17T14:33:33.359Z,19.37
2022-10-17T14:36:03.997Z,19.38
2022-10-17T14:38:32.355Z,19.34
2022-10-17T14:41:30.557Z,19.31
2022-10-17T14:43:59.672Z,19.28
2022-10-17T14:46:27.936Z,19.24
2022-10-17T14:49:03.388Z,19.17
2022-10-17T14:51:40.004Z,19.13
2022-10-17T14:54:25.932Z,19.09
2022-10-17T14:56:54.958Z,19.00
2022-10-17T14:59:52.130Z,18.99
2022-10-17T15:02:13.415Z,18.89
2022-10-17T15:04:41.533Z,18.83
2022-10-17T15:07:16.505Z,18.82
2022-10-17T15:09:48.816Z,18.73
2022-10-17T15:12:28.322Z,18.61
2022-10-17T15:14:56.165Z,18.59
2022-10-17T15:17:30.119Z,18.52
2022-10-17T15:19:58.246Z,18.44
2022-10-17T15:22:25.832Z,18.37
2022-10-17T15:24:53.272Z,18.29
2022-10-17T15:27:23.521Z,18.24
2022-10-17T15:29:51.728Z,18.16
2022-10-17T15:32:20.174Z,18.06
2022-10-17T15:34:49.123Z,17.95
2022-10-17T15:37:23.211Z,17.86
2022-10-17T15:39:55.134Z,17.78
2022-10-17T15:42:27.843Z,17.68
2022-10-17T15:44:57.714Z,17.63
2022-10-17T15:47:33.637Z,17.50
2022-10-17T15:50:03.782Z,17.43
2022-10-17T15:52:31.444Z,17.35
2022-10-17T15:55:00.997Z,17.28
2022-10-17T15:57:35.991Z,17.22
2022-10-17T16:00:07.097Z,17.13
2022-10-17T16:02:36.766Z,17.06
2022-10-17T16:05:14.909Z,16.96
2022-10-17T16:07:46.110Z,16.88
2022-10-17T16:10:15.353Z,16.78
2022-10-17T16:12:42.913Z,16.73
2022-10-17T16:15:16.191Z,16.71
2022-10-17T16:17:44.340Z,16.62
2022-10-17T16:20:12.978Z,16.52
2022-10-17T16:22:43.454Z,16.46
2022-10-17T16:25:21.391Z,16.38
2022-10-17T16:27:51.164Z,16.27
2022-10-17T16:30:19.770Z,16.18
2022-10-17T16:32:47.649Z,16.00
2022-10-17T16:35:18.837Z,15.93
2022-10-17T16:37:47.501Z,15.82
2022-10-17T16:40:15.840Z,15.81
2022-10-17T16:42:43.572Z,15.79
2022-10-17T16:45:22.888Z,15.70
2022-10-17T16:47:50.787Z,15.52
2022-10-17T16:50:19.863Z,15.35
2022-10-17T16:52:47.716Z,15.27
2022-10-17T16:55:18.663Z,15.20
2022-10-17T16:57:48.826Z,15.07
2022-10-17T17:00:17.907Z,15.00
2022-10-17T17:02:47.819Z,14.90
2022-10-17T17:05:15.686Z,14.76
2022-10-17T17:07:43.048Z,14.66
2022-10-17T17:10:10.833Z,14.59
2022-10-17T17:12:38.539Z,14.49
2022-10-17T17:15:06.404Z,14.36
2022-10-17T17:17:49.557Z,14.26
2022-10-17T17:20:20.283Z,14.13
2022-10-17T17:22:50.735Z,14.01
2022-10-17T17:25:18.107Z,13.95
2022-10-17T17:27:45.651Z,13.84
2022-10-17T17:30:14.190Z,13.80
2022-10-17T17:32:41.661Z,13.70
2022-10-17T17:35:09.558Z,13.85
2022-10-17T17:37:37.417Z,13.62
2022-10-17T17:40:07.252Z,13.70
2022-10-17T17:42:34.726Z,13.82
2022-10-17T17:45:03.164Z,13.90
2022-10-17T17:47:31.152Z,14.08
2022-10-17T17:49:58.808Z,14.21
2022-10-17T17:52:26.449Z,14.16
2022-10-17T17:54:53.868Z,14.09
2022-10-17T17:57:21.547Z,14.01
2022-10-17T17:59:50.088Z,14.05
2022-10-17T18:02:17.534Z,14.05
2022-10-17T18:04:45.247Z,14.08
2022-10-17T18:07:12.861Z,14.10
2022-10-17T18:09:40.394Z,14.04
2022-10-17T18:12:08.086Z,13.99
2022-10-17T18:14:35.507Z,13.91
2022-10-17T18:17:02.858Z,13.79
2022-10-17T18:19:30.654Z,13.60
2022-10-17T18:21:58.668Z,13.42
2022-10-17T18:24:27.382Z,13.27
2022-10-17T18:26:59.622Z,13.14
2022-10-17T18:29:27.742Z,13.05
2022-10-17T18:31:55.748Z,12.96
2022-10-17T18:34:23.204Z,12.96
2022-10-17T18:36:52.776Z,12.83
2022-10-17T18:39:20.621Z,12.71
2022-10-17T18:41:48.078Z,12.60
2022-10-17T18:44:16.825Z,12.50
2022-10-17T18:49:16.040Z,12.34
2022-10-17T18:51:43.916Z,12.18
2022-10-17T18:54:17.231Z,12.04
2022-10-17T18:56:45.309Z,12.48
2022-10-17T18:59:12.768Z,12.39
2022-10-17T19:01:40.260Z,12.26
2022-10-17T19:04:07.993Z,12.17
2022-10-17T19:06:35.609Z,12.10
2022-10-17T19:09:06.730Z,11.97
2022-10-17T19:11:36.308Z,11.95
2022-10-17T19:14:07.979Z,11.90
2022-10-17T19:16:37.194Z,11.78
2022-10-17T19:19:16.777Z,11.80
2022-10-17T19:21:44.777Z,11.73
2022-10-17T19:24:15.635Z,11.62
2022-10-17T19:26:44.320Z,11.51
2022-10-17T19:29:16.906Z,11.35
2022-10-17T19:31:45.197Z,11.56
2022-10-17T19:34:14.029Z,11.63
2022-10-17T19:36:42.164Z,11.72
2022-10-17T19:39:15.632Z,11.67
2022-10-17T19:41:45.280Z,11.63
2022-10-17T19:44:13.895Z,11.58
2022-10-17T19:46:44.290Z,11.45
2022-10-17T19:49:13.045Z,11.41
2022-10-17T19:51:40.484Z,11.16
2022-10-17T19:54:07.867Z,11.25
2022-10-17T19:56:38.852Z,11.30
2022-10-17T19:59:07.496Z,11.22
2022-10-17T20:01:38.900Z,11.23
2022-10-17T20:04:08.602Z,11.10
2022-10-17T20:06:36.361Z,11.12
2022-10-17T20:09:05.172Z,11.09
2022-10-17T20:11:32.953Z,11.02
2022-10-17T20:14:01.827Z,11.05
2022-10-17T20:16:32.175Z,10.93
2022-10-17T20:19:06.874Z,10.92
2022-10-17T20:21:36.535Z,10.91
2022-10-17T20:24:07.373Z,10.86
2022-10-17T20:26:39.406Z,10.81
2022-10-17T20:29:19.697Z,10.78
2022-10-17T20:31:47.972Z,10.76
2022-10-17T20:34:17.826Z,10.61
2022-10-17T20:36:45.975Z,10.62
2022-10-17T20:39:15.055Z,10.63
2022-10-17T20:41:43.679Z,10.57
2022-10-17T20:44:11.619Z,10.58
2022-10-17T20:46:44.736Z,10.55
2022-10-17T20:49:21.162Z,10.46
2022-10-17T20:51:50.202Z,10.42
2022-10-17T20:54:17.657Z,10.33
2022-10-17T20:56:45.319Z,10.32
2022-10-17T20:59:14.960Z,10.31
2022-10-17T21:01:43.616Z,10.26
2022-10-17T21:04:40.370Z,10.12
2022-10-17T21:06:59.766Z,10.14
2022-10-17T21:09:27.607Z,10.10
2022-10-17T21:11:55.958Z,10.08
2022-10-17T21:14:33.668Z,10.07
2022-10-17T21:17:04.951Z,10.07
2022-10-17T21:19:33.564Z,10.05
2022-10-17T21:22:01.654Z,10.11
2022-10-17T21:24:29.051Z,10.11
2022-10-17T21:26:57.525Z,10.12
2022-10-17T21:29:25.288Z,10.06
2022-10-17T21:31:52.876Z,10.01
2022-10-17T21:34:22.284Z,9.96
2022-10-17T21:36:50.057Z,9.84
2022-10-17T21:39:17.555Z,9.79
2022-10-17T21:41:44.968Z,9.85
2022-10-17T21:44:18.453Z,9.80
2022-10-17T21:46:46.727Z,9.70
2022-10-17T21:49:17.201Z,9.61
2022-10-17T21:51:45.260Z,9.81
2022-10-17T21:54:12.694Z,9.70
2022-10-17T21:56:40.851Z,9.69
2022-10-17T21:59:08.747Z,9.73
2022-10-17T22:01:41.410Z,9.71
2022-10-17T22:04:13.061Z,9.74
2022-10-17T22:06:42.411Z,9.77
2022-10-17T22:09:20.091Z,9.77
2022-10-17T22:11:50.290Z,9.63
2022-10-17T22:14:20.062Z,9.75
2022-10-17T22:16:48.549Z,9.78
2022-10-17T22:19:18.857Z,9.74
2022-10-17T22:21:46.704Z,9.72
2022-10-17T22:24:15.982Z,9.69
2022-10-17T22:26:44.579Z,9.70
2022-10-17T22:29:12.991Z,9.64
2022-10-17T22:31:40.792Z,9.61
2022-10-17T22:34:10.228Z,9.55
2022-10-17T22:36:37.868Z,9.45
2022-10-17T22:39:05.440Z,9.42
2022-10-17T22:41:32.846Z,9.42
2022-10-17T22:44:00.477Z,9.40
2022-10-17T22:46:28.180Z,9.32
2022-10-17T22:48:55.864Z,9.36
2022-10-17T22:53:56.241Z,9.32
2022-10-17T22:56:23.950Z,9.28
2022-10-17T22:58:52.074Z,9.28
2022-10-17T23:01:22.212Z,9.24
2022-10-17T23:03:51.464Z,9.22
2022-10-17T23:06:19.986Z,9.19
2022-10-17T23:08:48.081Z,9.30
2022-10-17T23:11:16.334Z,9.18
2022-10-17T23:13:43.945Z,9.11
2022-10-17T23:16:11.525Z,9.07
2022-10-17T23:18:39.482Z,8.91
2022-10-17T23:21:08.199Z,8.95
2022-10-17T23:23:36.280Z,9.07
2022-10-17T23:26:06.665Z,9.03
2022-10-17T23:28:35.635Z,9.02
2022-10-17T23:31:16.707Z,8.88
2022-10-17T23:33:45.748Z,8.78
2022-10-17T23:36:20.160Z,8.79
2022-10-17T23:38:48.417Z,8.82
2022-10-17T23:41:17.090Z,8.86
2022-10-17T23:43:44.736Z,8.79
2022-10-17T23:46:12.519Z,8.76
2022-10-17T23:48:41.219Z,8.72
2022-10-17T23:51:10.005Z,8.60
2022-10-17T23:53:38.301Z,8.70
2022-10-17T23:56:07.800Z,8.72
2022-10-17T23:58:36.169Z,8.71
